TimePDT,TemperatureF,Dew PointF,Humidity,Sea Level PressureIn,VisibilityMPH,Wind Direction,Wind SpeedMPH,Gust SpeedMPH,PrecipitationIn,Events,Conditions,WindDirDegrees,DateUTC
1:00 AM,38.3,36.0,91,29.80,-9999.0,NNW,1.2,-,N/A,,Unknown,340,2012-10-22 08:00:00
2:00 AM,37.8,35.8,93,29.78,-9999.0,NE,1.2,-,N/A,,Unknown,40,2012-10-22 09:00:00
3:00 AM,37.4,35.6,93,29.76,-9999.0,NNE,1.2,-,N/A,,Unknown,20,2012-10-22 10:00:00
4:00 AM,37.9,35.8,92,29.74,-9999.0,North,1.2,-,N/A,,Unknown,10,2012-10-22 11:00:00
5:00 AM,37,35,89,29.72,,North,1.2,,,,,10,2012-10-22 12:00:00
5:00 AM,36.7,34.9,93,29.72,-9999.0,North,1.2,-,N/A,,Unknown,10,2012-10-22 12:00:00
6:00 AM,36.1,34.3,93,29.71,-9999.0,NNE,1.2,-,N/A,,Unknown,20,2012-10-22 13:00:00
7:00 AM,36.3,33.8,91,29.70,-9999.0,North,1.2,-,N/A,,Unknown,10,2012-10-22 14:00:00
8:00 AM,37.4,34.2,88,29.67,-9999.0,North,1.2,-,N/A,,Unknown,10,2012-10-22 15:00:00
9:00 AM,39.6,35.2,85,29.66,-9999.0,Calm,Calm,-,N/A,,Unknown,0,2012-10-22 16:00:00
10:00 AM,41.9,36.1,80,29.66,-9999.0,Calm,Calm,-,N/A,,Unknown,0,2012-10-22 17:00:00
11:00 AM,45,36,63,29.64,,Calm,Calm,,,,,,2012-10-22 18:00:00
11:00 AM,44.6,36.5,73,29.64,-9999.0,Calm,Calm,-,N/A,,Unknown,0,2012-10-22 18:00:00
12:00 PM,45.1,36.9,73,29.62,-9999.0,SSW,1.2,-,N/A,,Unknown,210,2012-10-22 19:00:00
1:00 PM,47.8,36.5,65,29.60,-9999.0,Calm,Calm,-,N/A,,Unknown,0,2012-10-22 20:00:00
2:00 PM,48.9,34.0,56,29.59,-9999.0,Calm,Calm,-,N/A,,Unknown,0,2012-10-22 21:00:00
3:00 PM,48.2,37.9,68,29.58,-9999.0,Calm,Calm,-,N/A,,Unknown,0,2012-10-22 22:00:00
4:00 PM,48.4,36.7,64,29.58,-9999.0,Calm,Calm,-,N/A,,Unknown,0,2012-10-22 23:00:00
5:00 PM,47,40,67,29.60,,ENE,1.2,,,,,70,2012-10-23 00:00:00
5:00 PM,46.9,39.6,76,29.60,-9999.0,ENE,1.2,-,N/A,,Unknown,70,2012-10-23 00:00:00
6:00 PM,44.4,37.6,77,29.62,-9999.0,NE,2.3,-,N/A,,Unknown,50,2012-10-23 01:00:00
7:00 PM,41.7,39.7,93,29.62,-9999.0,North,1.2,-,0.02,,Unknown,360,2012-10-23 02:00:00
8:00 PM,41.4,39.6,93,29.62,-9999.0,NNE,1.2,-,N/A,,Unknown,30,2012-10-23 03:00:00
9:00 PM,41.4,39.6,93,29.62,-9999.0,North,1.2,-,N/A,,Unknown,10,2012-10-23 04:00:00
10:00 PM,41.2,39.7,95,29.63,-9999.0,NNE,1.2,-,0.02,,Unknown,20,2012-10-23 05:00:00
11:00 PM,41,40,93,29.64,,Calm,Calm,,,,,,2012-10-23 06:00:00